Time;durP1;ratioP1;P1;durP2;ratioP2;P2;SDS_P1;SDS_P2;PMS_P1;PMS_P2;Temp;Humidity;BMP_temperature;BMP_pressure;BME280_temperature;BME280_humidity;BME280_pressure;Samples;Min_cycle;Max_cycle;Signal;HPM_P1;HPM_P2
2022/06/28 00:01:52;;;;;;;7.68;4.95;;;13.80;99.90;;;;;;5044287;28;20044;-64
2022/06/28 00:04:19;;;;;;;13.23;5.93;;;13.80;99.90;;;;;;5029131;28;20040;-64
2022/06/28 00:06:45;;;;;;;6.50;5.63;;;13.80;99.90;;;;;;5026560;28;20071;-64
2022/06/28 00:09:11;;;;;;;8.38;5.97;;;13.70;99.90;;;;;;5048893;28;20044;-64
2022/06/28 00:11:38;;;;;;;7.53;6.40;;;13.70;99.90;;;;;;5049174;28;20055;-64
2022/06/28 00:16:04;;;;;;;7.20;5.18;;;13.70;99.90;;;;;;5045665;28;20066;-64
2022/06/28 00:16:50;;;;;;;7.60;6.90;;;13.70;99.90;;;;;;5039689;28;20047;-64
2022/06/28 00:19:15;;;;;;;9.13;6.95;;;13.70;99.90;;;;;;5045966;28;20756;-64
2022/06/28 00:21:41;;;;;;;7.38;6.47;;;13.70;99.90;;;;;;5045029;28;20136;-64
2022/06/28 00:24:06;;;;;;;7.50;6.72;;;13.70;99.90;;;;;;5046070;28;20668;-64
2022/06/28 00:26:32;;;;;;;8.02;7.22;;;13.70;99.90;;;;;;5028312;28;20493;-64
2022/06/28 00:28:58;;;;;;;11.85;7.97;;;13.70;99.90;;;;;;5046562;28;20032;-64
2022/06/28 00:31:25;;;;;;;8.15;7.35;;;13.60;99.90;;;;;;5048483;28;20032;-64
2022/06/28 00:33:51;;;;;;;10.15;8.13;;;13.60;99.90;;;;;;5044919;28;20052;-64
2022/06/28 00:36:17;;;;;;;8.75;6.85;;;13.60;99.90;;;;;;5027983;28;20044;-64
2022/06/28 00:38:42;;;;;;;9.90;7.32;;;13.60;99.90;;;;;;5045025;28;20039;-64
2022/06/28 00:41:08;;;;;;;7.95;6.72;;;13.60;99.90;;;;;;5042469;28;20052;-64
2022/06/28 00:43:35;;;;;;;10.52;7.15;;;13.60;99.90;;;;;;5047736;28;20774;-64
2022/06/28 00:46:02;;;;;;;8.80;6.53;;;13.60;99.90;;;;;;5027249;28;20537;-64
2022/06/28 00:48:28;;;;;;;9.27;7.63;;;13.50;99.90;;;;;;5026908;28;20047;-64
2022/06/28 00:50:54;;;;;;;8.13;7.32;;;13.50;99.90;;;;;;5024322;28;20061;-64
2022/06/28 00:53:19;;;;;;;7.63;5.72;;;13.50;99.90;;;;;;5050885;28;20521;-64
2022/06/28 00:55:46;;;;;;;5.90;5.40;;;13.50;99.90;;;;;;5029114;28;20126;-64
2022/06/28 00:58:12;;;;;;;8.27;5.45;;;13.40;99.90;;;;;;5022531;28;20092;-64
2022/06/28 01:00:41;;;;;;;5.70;5.20;;;13.30;99.90;;;;;;5042082;28;20296;-64
2022/06/28 01:03:08;;;;;;;6.60;5.68;;;13.30;99.90;;;;;;5046610;28;20490;-64
2022/06/28 01:05:36;;;;;;;6.88;5.43;;;13.30;99.90;;;;;;5044135;28;20101;-64
2022/06/28 01:08:03;;;;;;;11.65;5.43;;;13.20;99.90;;;;;;5051668;28;20767;-64
2022/06/28 01:10:29;;;;;;;9.13;6.15;;;13.10;99.90;;;;;;5045917;28;21851;-64
2022/06/28 01:12:54;;;;;;;8.43;5.75;;;13.00;99.90;;;;;;5044067;28;20463;-64
2022/06/28 01:15:20;;;;;;;7.72;7.03;;;13.00;99.90;;;;;;5042349;28;20130;-63
2022/06/28 01:17:46;;;;;;;11.07;6.80;;;13.00;99.90;;;;;;5028010;28;20438;-64
2022/06/28 01:20:11;;;;;;;9.68;7.63;;;13.00;99.90;;;;;;5049931;28;20079;-64
2022/06/28 01:22:40;;;;;;;8.57;6.93;;;13.00;99.90;;;;;;5024747;28;20040;-64
2022/06/28 01:25:10;;;;;;;11.55;7.13;;;13.00;99.90;;;;;;5045557;28;20032;-64
2022/06/28 01:27:37;;;;;;;9.02;8.13;;;13.10;99.90;;;;;;5031275;28;20147;-64
2022/06/28 01:30:04;;;;;;;11.13;8.75;;;13.10;99.90;;;;;;5032671;28;20048;-64
2022/06/28 01:32:30;;;;;;;10.77;9.55;;;13.10;99.90;;;;;;5031650;28;20758;-64
2022/06/28 01:34:56;;;;;;;8.85;8.00;;;13.10;99.90;;;;;;5047514;28;20040;-64
2022/06/28 01:37:22;;;;;;;10.55;9.55;;;13.10;99.90;;;;;;5030253;28;20822;-64
2022/06/28 01:39:48;;;;;;;11.43;9.45;;;13.20;99.90;;;;;;5047255;28;20048;-64
2022/06/28 01:42:13;;;;;;;10.25;9.18;;;13.10;99.90;;;;;;5032853;28;20090;-64
2022/06/28 01:44:40;;;;;;;14.13;10.43;;;13.20;99.90;;;;;;5050042;28;20614;-64
2022/06/28 01:47:07;;;;;;;11.77;10.13;;;13.10;99.90;;;;;;5029813;28;20044;-64
2022/06/28 01:49:32;;;;;;;13.20;11.07;;;13.20;99.90;;;;;;5041062;28;21695;-64
2022/06/28 01:51:58;;;;;;;14.48;9.40;;;13.20;99.90;;;;;;5028330;28;20144;-64
2022/06/28 01:54:25;;;;;;;15.68;10.13;;;13.10;99.90;;;;;;5053393;28;20047;-64
2022/06/28 01:56:51;;;;;;;10.30;9.32;;;13.20;99.90;;;;;;5061093;28;21829;-64
2022/06/28 01:59:17;;;;;;;9.40;8.57;;;13.10;99.90;;;;;;5028108;28;20047;-64
2022/06/28 02:01:43;;;;;;;10.70;9.48;;;13.10;99.90;;;;;;5029112;28;20040;-64
2022/06/28 02:04:23;;;;;;;12.07;9.88;;;13.10;99.90;;;;;;5030799;28;20054;-64
2022/06/28 02:06:49;;;;;;;9.80;8.85;;;13.10;99.90;;;;;;5054573;28;20405;-64
2022/06/28 02:09:14;;;;;;;13.75;8.55;;;13.10;99.90;;;;;;5029421;28;20056;-64
2022/06/28 02:11:41;;;;;;;9.02;8.13;;;13.10;99.90;;;;;;5044773;28;20032;-64
2022/06/28 02:14:07;;;;;;;9.20;8.20;;;13.10;99.90;;;;;;5056288;28;20044;-64
2022/06/28 02:16:32;;;;;;;8.95;8.15;;;13.10;99.90;;;;;;5041936;28;20048;-64
2022/06/28 02:18:58;;;;;;;13.18;8.85;;;13.00;99.90;;;;;;5044196;28;20048;-64
2022/06/28 02:21:24;;;;;;;8.98;8.02;;;13.00;99.90;;;;;;5040065;28;20372;-64
2022/06/28 02:23:49;;;;;;;11.38;7.55;;;13.10;99.90;;;;;;5027933;28;20048;-64
2022/06/28 02:26:15;;;;;;;8.82;8.02;;;13.00;99.90;;;;;;5033058;28;20051;-64
2022/06/28 02:28:41;;;;;;;10.07;7.68;;;13.00;99.90;;;;;;5044835;28;20040;-64
2022/06/28 02:31:11;;;;;;;9.98;7.55;;;13.00;99.90;;;;;;5038734;28;20048;-64
2022/06/28 02:33:38;;;;;;;10.00;8.23;;;13.00;99.90;;;;;;5044485;28;20040;-64
2022/06/28 02:41:32;;;;;;;11.20;7.13;;;12.90;99.90;;;;;;5044198;28;20048;-64
2022/06/28 02:43:58;;;;;;;9.95;7.43;;;12.90;99.90;;;;;;5029284;28;20611;-64
2022/06/28 02:46:24;;;;;;;8.00;7.22;;;12.90;99.90;;;;;;5056749;28;20413;-64
2022/06/28 02:48:49;;;;;;;12.43;6.47;;;12.90;99.90;;;;;;5045361;28;20387;-64
2022/06/28 02:51:15;;;;;;;9.18;7.70;;;12.80;99.90;;;;;;5042155;28;20028;-64
2022/06/28 02:53:41;;;;;;;7.50;6.50;;;12.70;99.90;;;;;;5044059;28;20035;-64
2022/06/28 02:56:07;;;;;;;12.57;5.88;;;12.70;99.90;;;;;;5064063;28;21603;-64
2022/06/28 02:58:32;;;;;;;8.13;6.95;;;12.70;99.90;;;;;;5060246;28;20159;-63
2022/06/28 03:00:58;;;;;;;8.00;6.97;;;12.60;99.90;;;;;;5044395;28;20047;-64
2022/06/28 03:03:24;;;;;;;8.00;7.18;;;12.50;99.90;;;;;;5028763;28;20047;-64
2022/06/28 03:05:50;;;;;;;6.65;6.05;;;12.40;99.90;;;;;;5054146;28;21793;-64
2022/06/28 03:08:16;;;;;;;9.52;7.95;;;12.30;99.90;;;;;;5030584;28;20048;-64
2022/06/28 03:10:42;;;;;;;8.57;6.97;;;12.30;99.90;;;;;;5050111;28;20379;-64
2022/06/28 03:13:08;;;;;;;7.80;6.65;;;12.30;99.90;;;;;;5031095;28;20733;-64
2022/06/28 03:15:34;;;;;;;10.93;6.43;;;12.20;99.90;;;;;;5025923;28;20173;-64
2022/06/28 03:18:00;;;;;;;6.80;6.30;;;12.20;99.90;;;;;;5027142;28;20486;-64
2022/06/28 03:20:25;;;;;;;7.88;6.38;;;12.10;99.90;;;;;;5034337;28;20044;-64
2022/06/28 03:22:51;;;;;;;11.18;7.22;;;12.10;99.90;;;;;;5048432;28;20141;-64
2022/06/28 03:25:17;;;;;;;8.30;7.18;;;12.10;99.90;;;;;;5046966;28;20051;-64
2022/06/28 03:27:42;;;;;;;7.38;6.75;;;12.10;99.90;;;;;;5044473;28;20032;-63
2022/06/28 03:30:08;;;;;;;8.70;7.43;;;12.10;99.90;;;;;;5028305;28;20474;-64
2022/06/28 03:32:34;;;;;;;9.32;8.13;;;12.10;99.90;;;;;;5031313;28;20685;-64
2022/06/28 03:34:59;;;;;;;7.70;6.60;;;12.10;99.90;;;;;;5045177;28;20127;-64
2022/06/28 03:37:25;;;;;;;6.47;5.28;;;12.20;99.90;;;;;;5047832;28;20621;-64
2022/06/28 03:39:51;;;;;;;7.15;5.18;;;12.20;99.90;;;;;;5028023;28;20079;-64
2022/06/28 03:42:16;;;;;;;5.55;4.82;;;12.20;99.90;;;;;;5032304;28;20594;-64
2022/06/28 03:44:42;;;;;;;5.93;5.43;;;12.20;99.90;;;;;;5047267;28;20039;-64
2022/06/28 03:47:08;;;;;;;11.07;8.02;;;12.10;99.90;;;;;;5026556;28;20044;-64
2022/06/28 03:49:34;;;;;;;11.07;7.45;;;12.20;99.90;;;;;;5045966;28;20039;-64
2022/06/28 03:52:00;;;;;;;8.48;7.65;;;12.40;99.90;;;;;;5050072;28;20047;-64
2022/06/28 03:54:26;;;;;;;7.65;6.95;;;12.30;99.90;;;;;;5030554;28;20689;-64
2022/06/28 03:56:51;;;;;;;8.00;6.82;;;12.40;99.90;;;;;;5032929;28;20055;-64
2022/06/28 03:59:17;;;;;;;6.80;6.20;;;12.40;99.90;;;;;;5026676;28;20758;-64
2022/06/28 04:01:42;;;;;;;6.25;5.60;;;12.40;99.90;;;;;;5025880;28;20635;-64
2022/06/28 04:04:08;;;;;;;8.05;7.38;;;12.50;99.90;;;;;;5048695;28;20036;-64
2022/06/28 04:06:34;;;;;;;11.90;8.75;;;12.50;99.90;;;;;;5044296;28;20102;-64
2022/06/28 04:09:00;;;;;;;11.95;6.60;;;12.70;99.90;;;;;;5026765;28;20056;-64
2022/06/28 04:11:25;;;;;;;8.63;5.60;;;13.20;99.90;;;;;;5027613;28;20055;-64
2022/06/28 04:13:53;;;;;;;6.53;5.70;;;13.70;99.90;;;;;;5050901;28;20068;-64
2022/06/28 04:16:20;;;;;;;6.15;4.57;;;13.90;99.90;;;;;;5046907;28;20048;-64
2022/06/28 04:18:46;;;;;;;7.28;5.15;;;14.00;99.90;;;;;;5023459;28;20130;-64
2022/06/28 04:21:13;;;;;;;10.43;4.72;;;14.00;99.90;;;;;;5044772;28;20677;-64
2022/06/28 04:23:39;;;;;;;6.35;4.70;;;14.10;99.90;;;;;;5032466;28;20115;-64
2022/06/28 04:26:05;;;;;;;7.57;4.30;;;14.20;99.90;;;;;;5049277;28;20494;-64
2022/06/28 04:28:31;;;;;;;5.65;4.15;;;14.40;99.90;;;;;;5038913;28;20040;-64
2022/06/28 04:30:57;;;;;;;5.82;3.78;;;14.60;99.90;;;;;;5022467;28;20051;-64
2022/06/28 04:33:23;;;;;;;7.47;3.50;;;14.80;99.90;;;;;;5024626;28;20051;-64
2022/06/28 04:35:49;;;;;;;7.38;3.53;;;15.50;99.90;;;;;;5023397;28;20496;-64
2022/06/28 04:38:15;;;;;;;5.20;3.25;;;16.80;99.90;;;;;;5038263;28;20052;-64
2022/06/28 04:40:40;;;;;;;8.63;2.85;;;18.20;99.90;;;;;;5023243;28;20075;-64
2022/06/28 04:43:06;;;;;;;5.15;2.80;;;19.20;99.90;;;;;;5040002;28;20045;-64
2022/06/28 04:45:32;;;;;;;5.85;2.72;;;19.80;99.90;;;;;;5040642;28;21686;-64
2022/06/28 04:47:57;;;;;;;7.10;2.15;;;20.70;99.90;;;;;;5038389;28;20044;-65
2022/06/28 04:50:23;;;;;;;2.78;2.33;;;21.70;99.90;;;;;;5020252;28;20122;-65
2022/06/28 04:52:49;;;;;;;7.10;2.38;;;22.60;99.90;;;;;;5040447;28;21599;-65
2022/06/28 04:55:18;;;;;;;5.20;2.42;;;23.30;99.90;;;;;;5042723;28;21267;-65
2022/06/28 04:57:43;;;;;;;7.05;2.17;;;24.10;99.90;;;;;;5023726;28;20103;-65
2022/06/28 05:00:10;;;;;;;6.72;2.70;;;25.00;99.90;;;;;;5040782;28;21994;-65
2022/06/28 05:02:36;;;;;;;6.57;2.17;;;25.70;99.90;;;;;;5045037;28;20089;-65
2022/06/28 05:05:11;;;;;;;6.28;2.40;;;26.20;99.90;;;;;;5053359;28;20734;-65
2022/06/28 05:07:37;;;;;;;4.43;2.00;;;26.70;99.90;;;;;;5055437;28;20040;-65
2022/06/28 05:10:03;;;;;;;6.28;1.92;;;27.30;99.90;;;;;;5029030;28;21362;-65
2022/06/28 05:12:29;;;;;;;5.25;2.38;;;27.90;99.90;;;;;;5055288;28;20141;-65
2022/06/28 05:14:55;;;;;;;4.72;1.60;;;28.10;99.90;;;;;;5049036;28;20505;-65
2022/06/28 05:17:20;;;;;;;5.43;2.55;;;28.10;99.90;;;;;;5035584;28;20650;-65
2022/06/28 05:19:46;;;;;;;4.78;2.40;;;28.50;99.90;;;;;;5046025;28;20048;-64
2022/06/28 05:22:12;;;;;;;5.93;1.75;;;28.70;99.90;;;;;;5031159;28;20132;-64
2022/06/28 05:24:38;;;;;;;3.33;1.48;;;28.90;99.90;;;;;;5043777;28;20109;-64
2022/06/28 05:27:04;;;;;;;5.65;1.73;;;28.40;99.90;;;;;;5053597;28;20068;-65
2022/06/28 05:29:30;;;;;;;4.65;2.20;;;27.50;99.90;;;;;;5032796;28;21058;-64
2022/06/28 05:31:56;;;;;;;6.38;1.70;;;26.60;99.90;;;;;;5043078;28;20040;-64
2022/06/28 05:34:22;;;;;;;4.13;1.58;;;25.60;99.90;;;;;;5048323;28;20077;-65
2022/06/28 05:36:48;;;;;;;8.05;2.90;;;25.10;99.90;;;;;;5050552;28;20130;-64
2022/06/28 05:39:15;;;;;;;7.10;1.95;;;24.60;99.90;;;;;;5052362;28;20067;-64
2022/06/28 05:41:43;;;;;;;6.97;2.28;;;24.30;99.90;;;;;;5046725;28;20028;-64
2022/06/28 05:44:11;;;;;;;4.68;1.70;;;23.80;99.90;;;;;;5044597;28;20476;-64
2022/06/28 05:46:39;;;;;;;6.15;1.90;;;23.50;99.90;;;;;;5046576;28;20463;-64
2022/06/28 05:49:06;;;;;;;5.80;1.70;;;23.40;99.90;;;;;;5035189;28;20128;-64
2022/06/28 05:51:31;;;;;;;6.35;2.15;;;23.20;99.90;;;;;;5016081;28;20055;-64
2022/06/28 05:53:57;;;;;;;6.50;2.33;;;23.10;99.90;;;;;;5049478;28;20664;-64
2022/06/28 05:56:23;;;;;;;8.07;2.25;;;22.80;99.90;;;;;;5055116;28;20054;-64
2022/06/28 05:58:49;;;;;;;5.82;1.88;;;22.70;99.90;;;;;;5064760;28;20039;-64
2022/06/28 06:01:14;;;;;;;3.63;1.63;;;22.60;99.90;;;;;;5063608;28;20076;-65
2022/06/28 06:03:40;;;;;;;5.22;1.73;;;22.60;99.90;;;;;;5059259;28;20047;-65
2022/06/28 06:06:06;;;;;;;5.30;2.03;;;22.50;99.90;;;;;;5057770;28;20044;-65
2022/06/28 06:08:35;;;;;;;6.00;1.80;;;22.50;99.90;;;;;;5038815;28;20040;-65
2022/06/28 06:11:02;;;;;;;4.40;1.52;;;22.40;99.90;;;;;;5035909;28;20048;-65
2022/06/28 06:13:28;;;;;;;6.60;2.08;;;22.30;99.90;;;;;;5055566;28;20043;-65
2022/06/28 06:15:54;;;;;;;5.30;1.58;;;22.50;99.90;;;;;;5050567;28;20044;-65
2022/06/28 06:18:20;;;;;;;6.10;2.38;;;22.60;99.90;;;;;;5036731;28;20044;-65
2022/06/28 06:20:46;;;;;;;6.70;1.80;;;22.40;99.90;;;;;;5039141;28;20044;-65
2022/06/28 06:23:11;;;;;;;4.45;1.70;;;22.60;99.90;;;;;;5051944;28;20059;-65
2022/06/28 06:25:37;;;;;;;6.00;1.45;;;22.60;99.90;;;;;;5031507;28;20044;-65
2022/06/28 06:28:03;;;;;;;6.80;2.47;;;22.60;99.90;;;;;;5017243;28;20039;-65
2022/06/28 06:30:29;;;;;;;6.60;2.38;;;22.70;99.90;;;;;;5044065;28;20402;-65
2022/06/28 06:32:55;;;;;;;8.60;2.03;;;22.80;99.90;;;;;;5054452;28;20058;-65
2022/06/28 06:35:20;;;;;;;7.97;1.80;;;22.70;99.90;;;;;;5052665;28;20084;-65
2022/06/28 06:37:46;;;;;;;3.33;1.40;;;22.70;99.90;;;;;;5049607;28;20046;-65
2022/06/28 06:40:12;;;;;;;6.65;2.50;;;22.60;99.90;;;;;;5055924;28;20430;-65
2022/06/28 06:42:38;;;;;;;2.70;1.63;;;22.80;99.90;;;;;;5035847;28;20135;-64
2022/06/28 06:45:04;;;;;;;4.50;1.52;;;22.90;99.90;;;;;;5034177;28;20039;-65
2022/06/28 06:47:30;;;;;;;6.82;1.83;;;23.00;99.90;;;;;;5049172;28;21767;-65
2022/06/28 06:49:56;;;;;;;9.18;2.15;;;23.00;99.90;;;;;;5033788;28;20394;-65
2022/06/28 06:52:21;;;;;;;4.32;1.38;;;23.00;99.90;;;;;;5056641;28;20044;-65
2022/06/28 06:54:47;;;;;;;9.93;1.70;;;23.00;99.90;;;;;;5049897;28;20040;-65
2022/06/28 06:57:15;;;;;;;6.35;2.28;;;23.10;99.90;;;;;;5049268;28;20126;-65
2022/06/28 06:59:40;;;;;;;4.55;1.45;;;23.30;99.90;;;;;;5049555;28;20097;-65
2022/06/28 07:02:06;;;;;;;6.50;1.95;;;23.20;99.90;;;;;;5048557;28;20118;-65
2022/06/28 07:04:32;;;;;;;7.47;2.03;;;23.40;99.90;;;;;;5038342;28;20071;-65
2022/06/28 07:06:57;;;;;;;5.85;1.80;;;23.50;99.90;;;;;;5057720;28;20044;-65
2022/06/28 07:09:24;;;;;;;5.18;1.33;;;23.50;99.90;;;;;;5044816;28;20040;-64
2022/06/28 07:11:49;;;;;;;7.97;1.75;;;23.70;99.90;;;;;;5048346;28;20038;-65
2022/06/28 07:14:15;;;;;;;8.05;2.17;;;23.80;99.90;;;;;;5053974;28;20067;-65
2022/06/28 07:16:41;;;;;;;6.78;2.38;;;23.70;99.90;;;;;;5039392;28;20040;-65
2022/06/28 07:19:07;;;;;;;7.22;2.08;;;23.70;99.90;;;;;;5030793;28;20055;-64
2022/06/28 07:21:32;;;;;;;9.43;2.53;;;23.60;99.90;;;;;;5032012;28;20055;-65
2022/06/28 07:23:58;;;;;;;8.10;1.83;;;23.70;99.90;;;;;;5028147;28;20152;-65
2022/06/28 07:26:24;;;;;;;8.77;2.60;;;23.80;99.90;;;;;;5036312;28;20496;-65
2022/06/28 07:28:49;;;;;;;5.90;2.00;;;23.90;99.90;;;;;;5052253;28;20046;-65
2022/06/28 07:31:15;;;;;;;7.63;1.90;;;23.60;99.90;;;;;;5049002;28;20094;-65
2022/06/28 07:33:41;;;;;;;9.55;2.10;;;23.60;99.90;;;;;;5030140;28;20075;-65
2022/06/28 07:36:07;;;;;;;7.72;2.00;;;23.50;99.90;;;;;;5057184;28;22002;-65
2022/06/28 07:38:33;;;;;;;8.02;1.40;;;23.20;99.90;;;;;;5039502;28;20101;-65
2022/06/28 07:40:58;;;;;;;8.80;2.30;;;22.90;99.90;;;;;;5045412;28;20138;-65
2022/06/28 07:43:27;;;;;;;11.02;2.13;;;22.70;99.90;;;;;;5030249;28;20086;-65
2022/06/28 07:45:53;;;;;;;7.97;1.88;;;22.90;99.90;;;;;;5034154;28;20565;-65
2022/06/28 07:48:19;;;;;;;5.57;1.52;;;23.20;99.90;;;;;;5056428;28;20078;-65
2022/06/28 07:53:32;;;;;;;8.60;1.75;;;23.80;99.90;;;;;;5054156;28;20482;-65
2022/06/28 07:55:58;;;;;;;7.22;1.52;;;24.30;99.90;;;;;;5039418;28;20048;-65
2022/06/28 07:58:24;;;;;;;7.35;2.08;;;24.40;99.90;;;;;;5053809;28;20511;-64
2022/06/28 08:00:50;;;;;;;10.02;1.70;;;24.30;99.90;;;;;;5052100;28;20151;-65
2022/06/28 08:03:16;;;;;;;9.57;2.17;;;23.80;99.90;;;;;;5047413;28;20044;-65
2022/06/28 08:05:41;;;;;;;9.15;2.15;;;23.70;99.90;;;;;;5048170;28;20043;-65
2022/06/28 08:08:08;;;;;;;7.38;1.52;;;23.50;99.90;;;;;;5051130;28;20386;-65
2022/06/28 08:10:34;;;;;;;7.43;1.60;;;23.00;99.90;;;;;;5035123;28;20048;-65
2022/06/28 08:13:00;;;;;;;6.88;2.30;;;22.80;99.90;;;;;;5051365;28;20040;-64
2022/06/28 08:15:25;;;;;;;4.47;1.33;;;22.50;99.90;;;;;;5050555;28;20040;-65
2022/06/28 08:17:51;;;;;;;7.50;1.10;;;22.40;99.90;;;;;;5051324;28;20058;-65
2022/06/28 08:20:17;;;;;;;6.15;1.10;;;22.30;99.90;;;;;;5053880;28;20059;-65
2022/06/28 08:22:42;;;;;;;8.70;2.30;;;22.60;99.90;;;;;;5030496;28;20066;-65
2022/06/28 08:25:08;;;;;;;7.25;1.90;;;22.70;99.90;;;;;;5048111;28;20054;-65
2022/06/28 08:27:35;;;;;;;6.22;1.50;;;23.10;99.90;;;;;;5051539;28;20051;-65
2022/06/28 08:30:00;;;;;;;5.05;1.35;;;23.10;99.90;;;;;;5037622;28;20051;-64
2022/06/28 08:32:26;;;;;;;11.32;1.80;;;23.20;99.90;;;;;;5049151;28;20047;-64
2022/06/28 08:34:52;;;;;;;6.40;1.20;;;23.30;99.90;;;;;;5026764;28;20044;-64
2022/06/28 08:37:18;;;;;;;5.80;1.65;;;23.70;99.90;;;;;;5030992;28;21960;-65
2022/06/28 08:39:44;;;;;;;8.32;1.85;;;23.80;99.90;;;;;;5031573;28;20082;-64
2022/06/28 08:42:12;;;;;;;5.38;1.58;;;23.70;99.90;;;;;;5037970;28;20051;-65
2022/06/28 08:44:38;;;;;;;5.40;0.98;;;23.80;99.90;;;;;;5029171;28;20040;-65
2022/06/28 08:47:05;;;;;;;8.48;1.35;;;23.70;99.90;;;;;;5049068;28;20036;-64
2022/06/28 08:49:42;;;;;;;7.05;1.45;;;23.80;99.90;;;;;;5052048;28;20044;-65
2022/06/28 08:52:09;;;;;;;8.70;1.30;;;23.90;99.90;;;;;;5054301;28;20036;-65
2022/06/28 08:54:35;;;;;;;5.53;0.85;;;24.10;99.90;;;;;;5054261;28;20143;-65
2022/06/28 08:57:05;;;;;;;6.10;1.38;;;24.20;99.90;;;;;;5051868;28;22137;-65
2022/06/28 08:59:31;;;;;;;6.35;1.50;;;24.20;99.90;;;;;;5033197;28;20052;-64
2022/06/28 09:01:56;;;;;;;8.88;1.10;;;24.20;99.90;;;;;;5044960;28;21643;-65
2022/06/28 09:04:22;;;;;;;7.65;0.88;;;24.40;99.90;;;;;;5046539;28;20040;-64
2022/06/28 09:06:48;;;;;;;8.93;1.40;;;24.50;99.90;;;;;;5050684;28;20052;-64
2022/06/28 09:09:14;;;;;;;11.77;2.20;;;24.60;99.90;;;;;;5055602;28;20047;-64
2022/06/28 09:11:42;;;;;;;6.03;1.10;;;24.40;99.90;;;;;;5045976;28;20455;-65
2022/06/28 09:14:35;;;;;;;3.47;0.98;;;24.40;99.90;;;;;;5046561;28;20044;-64
2022/06/28 09:17:36;;;;;;;7.30;0.90;;;24.40;99.90;;;;;;5055991;28;20040;-65
2022/06/28 09:20:07;;;;;;;11.27;1.65;;;24.30;99.90;;;;;;4983640;28;20494;-64
2022/06/28 09:22:41;;;;;;;5.53;1.17;;;24.40;99.90;;;;;;5049944;28;20439;-65
2022/06/28 09:25:12;;;;;;;4.93;1.30;;;24.20;99.90;;;;;;5062705;28;20039;-65
2022/06/28 09:27:41;;;;;;;6.32;1.30;;;24.30;99.90;;;;;;5044155;28;20054;-64
2022/06/28 09:30:09;;;;;;;5.55;1.52;;;24.40;99.90;;;;;;5065948;28;20297;-65
2022/06/28 09:32:37;;;;;;;6.43;2.00;;;24.30;99.90;;;;;;5044011;28;20040;-65
2022/06/28 09:35:10;;;;;;;7.47;1.23;;;24.40;99.90;;;;;;5044427;28;20056;-65
2022/06/28 09:37:37;;;;;;;5.75;1.00;;;24.30;99.90;;;;;;5061466;28;20040;-65
2022/06/28 09:40:17;;;;;;;4.90;1.23;;;24.20;99.90;;;;;;5065104;28;20083;-65
2022/06/28 09:42:45;;;;;;;5.93;1.83;;;24.30;99.90;;;;;;5043738;28;20032;-65
2022/06/28 09:45:12;;;;;;;5.32;0.80;;;24.40;99.90;;;;;;5062260;28;20127;-65
2022/06/28 09:47:47;;;;;;;3.83;1.10;;;24.40;99.90;;;;;;5064448;28;20576;-65
2022/06/28 09:50:19;;;;;;;6.20;1.30;;;24.50;99.90;;;;;;5069226;28;21549;-65
2022/06/28 09:52:45;;;;;;;4.47;1.10;;;24.80;99.90;;;;;;5048267;28;20502;-65
2022/06/28 09:55:14;;;;;;;5.03;0.70;;;24.80;99.90;;;;;;5046145;28;20493;-65
2022/06/28 09:57:44;;;;;;;5.32;1.27;;;24.80;99.90;;;;;;5044995;28;20036;-64
2022/06/28 10:00:12;;;;;;;7.35;1.17;;;24.60;99.60;;;;;;5068650;28;20052;-65
2022/06/28 10:02:39;;;;;;;4.43;0.95;;;24.50;99.90;;;;;;5068918;28;20043;-65
2022/06/28 10:05:05;;;;;;;3.95;0.77;;;24.70;99.90;;;;;;5049766;28;20113;-65
2022/06/28 10:07:32;;;;;;;7.70;1.25;;;24.90;99.90;;;;;;5066219;28;20450;-65
2022/06/28 10:09:58;;;;;;;6.25;1.13;;;25.00;99.90;;;;;;5060048;28;20539;-65
2022/06/28 10:15:08;;;;;;;9.27;1.25;;;25.30;99.90;;;;;;5066777;28;20048;-65
2022/06/28 10:17:51;;;;;;;3.28;0.60;;;25.30;99.30;;;;;;5068432;28;20563;-65
2022/06/28 10:20:28;;;;;;;4.00;1.17;;;25.00;99.60;;;;;;5061449;28;20040;-65
2022/06/28 10:23:22;;;;;;;4.40;0.80;;;24.90;99.50;;;;;;5051070;28;20054;-64
2022/06/28 10:26:04;;;;;;;6.43;1.05;;;24.60;99.90;;;;;;5046722;28;20048;-64
2022/06/28 10:28:44;;;;;;;5.43;1.17;;;24.60;99.90;;;;;;5062355;28;20044;-65
2022/06/28 10:31:25;;;;;;;2.95;0.80;;;24.70;99.70;;;;;;5046859;28;20052;-65
2022/06/28 10:33:54;;;;;;;4.85;1.20;;;24.80;98.00;;;;;;5048488;28;20764;-65
2022/06/28 10:36:23;;;;;;;3.33;0.80;;;24.70;98.90;;;;;;5045154;28;22200;-65
2022/06/28 10:39:06;;;;;;;4.25;0.70;;;24.90;99.90;;;;;;5049507;28;20048;-65
2022/06/28 10:41:44;;;;;;;3.25;1.17;;;25.00;99.80;;;;;;5047009;28;20047;-65
2022/06/28 10:44:32;;;;;;;5.75;0.80;;;25.10;99.90;;;;;;5047888;28;20064;-65
2022/06/28 10:47:01;;;;;;;2.78;0.63;;;25.30;99.40;;;;;;5048279;28;20044;-65
2022/06/28 10:49:54;;;;;;;2.92;0.73;;;25.30;99.70;;;;;;5046680;28;20072;-65
2022/06/28 10:52:32;;;;;;;4.95;0.70;;;25.40;98.90;;;;;;5046470;28;21158;-65
2022/06/28 10:54:57;;;;;;;4.72;0.80;;;25.60;99.10;;;;;;5047069;28;20122;-65
2022/06/28 10:57:27;;;;;;;4.53;1.05;;;25.70;98.70;;;;;;5046649;28;20076;-65
2022/06/28 10:59:55;;;;;;;4.22;0.82;;;25.60;98.30;;;;;;5047764;28;20425;-65
2022/06/28 11:02:22;;;;;;;5.25;0.95;;;25.20;98.90;;;;;;5047685;28;20036;-65
2022/06/28 11:05:08;;;;;;;4.13;0.65;;;25.00;99.60;;;;;;5066458;28;20036;-65
2022/06/28 11:07:34;;;;;;;2.10;0.68;;;25.00;99.00;;;;;;5063625;28;20448;-65
2022/06/28 11:10:00;;;;;;;3.70;1.05;;;25.00;98.90;;;;;;5032416;28;20047;-65
2022/06/28 11:12:29;;;;;;;2.25;0.60;;;25.10;97.70;;;;;;5047722;28;20128;-65
2022/06/28 11:15:00;;;;;;;3.83;0.95;;;25.20;97.80;;;;;;5063326;28;20524;-65
2022/06/28 11:17:32;;;;;;;3.83;0.70;;;25.10;97.80;;;;;;5064343;28;20071;-65
2022/06/28 11:20:11;;;;;;;2.47;0.68;;;24.90;98.80;;;;;;5051676;28;20055;-64
2022/06/28 11:22:43;;;;;;;4.38;0.70;;;24.60;99.10;;;;;;5065354;28;20044;-65
2022/06/28 11:27:19;;;;;;;3.15;0.68;;;24.70;98.60;;;;;;5064356;28;20044;-65
2022/06/28 11:28:15;;;;;;;7.53;1.05;;;24.80;97.30;;;;;;5044829;28;20537;-65
2022/06/28 11:30:44;;;;;;;3.88;1.02;;;25.00;97.80;;;;;;5047513;28;20039;-65
2022/06/28 11:33:11;;;;;;;3.35;0.68;;;25.10;96.90;;;;;;5045694;28;21513;-65
2022/06/28 11:35:37;;;;;;;2.00;0.50;;;25.20;96.90;;;;;;5043903;28;20059;-65
2022/06/28 11:38:07;;;;;;;6.60;0.90;;;25.30;97.00;;;;;;5043799;28;20953;-65
2022/06/28 11:40:51;;;;;;;5.03;0.47;;;25.20;96.90;;;;;;5044172;28;20055;-65
2022/06/28 11:43:19;;;;;;;4.85;0.60;;;25.30;97.00;;;;;;5063854;28;20032;-65
2022/06/28 11:45:48;;;;;;;3.22;0.60;;;25.40;97.30;;;;;;5044040;28;20048;-65
2022/06/28 11:48:21;;;;;;;4.50;0.65;;;25.50;96.50;;;;;;5046814;28;20055;-65
2022/06/28 11:50:55;;;;;;;3.22;0.70;;;25.60;97.30;;;;;;5040379;28;20052;-64
2022/06/28 11:53:21;;;;;;;4.30;0.60;;;25.70;96.80;;;;;;5045541;28;20759;-65
2022/06/28 11:55:53;;;;;;;1.77;0.40;;;25.70;98.40;;;;;;5046737;28;20048;-65
2022/06/28 11:58:25;;;;;;;5.18;0.70;;;25.70;95.80;;;;;;5048205;28;20051;-65
2022/06/28 12:01:13;;;;;;;3.15;0.90;;;25.80;96.80;;;;;;5063322;28;20434;-65
2022/06/28 12:03:41;;;;;;;2.47;0.60;;;25.80;96.00;;;;;;5064931;28;20036;-65
2022/06/28 12:06:12;;;;;;;3.60;0.68;;;25.80;95.80;;;;;;5063674;28;20040;-65
2022/06/28 12:08:49;;;;;;;4.35;0.93;;;25.90;96.20;;;;;;5060854;28;20488;-65
2022/06/28 12:11:35;;;;;;;2.05;0.50;;;25.90;96.70;;;;;;5058437;28;20052;-65
2022/06/28 12:14:04;;;;;;;5.47;0.77;;;26.00;97.50;;;;;;5063780;28;20573;-65
2022/06/28 12:16:31;;;;;;;3.10;0.85;;;25.90;97.20;;;;;;5044490;28;20075;-65
2022/06/28 12:18:57;;;;;;;7.10;0.70;;;25.90;97.00;;;;;;5061983;28;20044;-65
2022/06/28 12:21:23;;;;;;;2.40;0.50;;;26.10;98.40;;;;;;5041371;28;20052;-65
2022/06/28 12:23:51;;;;;;;5.40;0.70;;;25.90;97.40;;;;;;5040691;28;20548;-65
2022/06/28 12:26:17;;;;;;;5.07;0.70;;;25.90;97.30;;;;;;5063500;28;21934;-65
2022/06/28 12:28:44;;;;;;;6.45;0.60;;;26.10;97.60;;;;;;5060669;28;20040;-65
2022/06/28 12:31:10;;;;;;;4.70;0.90;;;26.10;96.80;;;;;;5059676;28;20040;-65
2022/06/28 12:33:36;;;;;;;7.18;0.85;;;26.20;96.60;;;;;;5065960;28;20093;-65
2022/06/28 12:36:01;;;;;;;3.90;0.73;;;26.20;95.90;;;;;;5064939;28;20065;-65
2022/06/28 12:38:27;;;;;;;1.95;0.60;;;26.30;95.00;;;;;;5063243;28;20458;-65
2022/06/28 12:40:52;;;;;;;6.00;0.60;;;26.30;95.70;;;;;;5043982;28;20048;-65
2022/06/28 12:43:18;;;;;;;2.10;0.55;;;26.30;95.30;;;;;;5043672;28;20044;-65
2022/06/28 12:45:43;;;;;;;3.80;1.25;;;26.30;95.40;;;;;;5063409;28;20105;-65
2022/06/28 12:48:09;;;;;;;4.10;1.15;;;26.20;95.30;;;;;;5048639;28;20044;-65
2022/06/28 12:50:35;;;;;;;3.08;0.77;;;26.30;96.70;;;;;;5043995;28;20054;-65
2022/06/28 12:53:01;;;;;;;3.38;0.77;;;26.20;95.00;;;;;;5044655;28;20070;-65
2022/06/28 12:55:26;;;;;;;3.30;0.68;;;26.10;95.90;;;;;;5060027;28;20040;-65
2022/06/28 12:57:52;;;;;;;2.22;0.75;;;26.00;95.60;;;;;;5058588;28;21901;-65
2022/06/28 13:00:18;;;;;;;1.90;0.50;;;25.60;94.40;;;;;;5044191;28;20103;-65